createdAt,value
2017-09-06T00:00:41.184Z,100604
2017-09-06T00:03:11.064Z,100593
2017-09-06T00:05:41.014Z,100590
2017-09-06T00:08:10.934Z,100577
2017-09-06T00:10:40.918Z,100569
2017-09-06T00:13:11.268Z,100569
2017-09-06T00:15:41.181Z,100579
2017-09-06T00:18:11.430Z,100565
2017-09-06T00:20:41.420Z,100557
2017-09-06T00:23:11.626Z,100568
2017-09-06T00:25:41.519Z,100549
2017-09-06T00:28:11.781Z,100547
2017-09-06T00:30:41.689Z,100543
2017-09-06T00:33:12.007Z,100547
2017-09-06T00:35:41.903Z,100541
2017-09-06T00:38:12.176Z,100542
2017-09-06T00:40:42.049Z,100548
2017-09-06T00:43:11.936Z,100538
2017-09-06T00:45:42.120Z,100538
2017-09-06T00:48:12.003Z,100536
2017-09-06T00:50:42.025Z,100523
2017-09-06T00:53:12.205Z,100522
2017-09-06T00:55:42.108Z,100514
2017-09-06T00:58:12.561Z,100512
2017-09-06T01:00:43.357Z,100509
2017-09-06T01:03:13.522Z,100506
2017-09-06T01:05:43.441Z,100500
2017-09-06T01:08:14.505Z,100487
2017-09-06T01:10:44.413Z,100492
2017-09-06T01:13:14.611Z,100491
2017-09-06T01:15:44.569Z,100488
2017-09-06T01:18:14.808Z,100489
2017-09-06T01:20:44.699Z,100482
2017-09-06T01:23:14.916Z,100484
2017-09-06T01:25:44.799Z,100480
2017-09-06T01:28:15.000Z,100478
2017-09-06T01:30:44.899Z,100470
2017-09-06T01:33:15.067Z,100470
2017-09-06T01:35:44.948Z,100467
2017-09-06T01:38:14.934Z,100471
2017-09-06T01:40:44.810Z,100465
2017-09-06T01:43:14.667Z,100462
2017-09-06T01:45:44.587Z,100478
2017-09-06T01:48:14.488Z,100458
2017-09-06T01:50:44.345Z,100458
2017-09-06T01:53:14.254Z,100458
2017-09-06T01:55:44.147Z,100455
2017-09-06T01:58:14.014Z,100445
2017-09-06T02:00:44.190Z,100449
2017-09-06T02:03:14.087Z,100439
2017-09-06T02:05:43.991Z,100438
2017-09-06T02:08:14.237Z,100435
2017-09-06T02:10:44.130Z,100429
2017-09-06T02:13:14.472Z,100430
2017-09-06T02:15:44.424Z,100424
2017-09-06T02:18:14.598Z,100424
2017-09-06T02:20:44.475Z,100417
2017-09-06T02:23:14.668Z,100417
2017-09-06T02:25:44.594Z,100422
2017-09-06T02:28:14.880Z,100412
2017-09-06T02:30:44.759Z,100412
2017-09-06T02:33:14.993Z,100414
2017-09-06T02:35:44.932Z,100409
2017-09-06T02:38:15.206Z,100402
2017-09-06T02:40:45.088Z,100403
2017-09-06T02:43:15.430Z,100405
2017-09-06T02:45:45.305Z,100393
2017-09-06T02:48:15.650Z,100407
2017-09-06T02:50:45.564Z,100395
2017-09-06T02:53:15.854Z,100391
2017-09-06T02:55:45.792Z,100394
2017-09-06T02:58:15.988Z,100389
2017-09-06T03:00:45.848Z,100382
2017-09-06T03:03:15.996Z,100379
2017-09-06T03:05:45.888Z,100368
2017-09-06T03:08:15.780Z,100364
2017-09-06T03:10:45.670Z,100370
2017-09-06T03:13:15.545Z,100365
2017-09-06T03:15:45.891Z,100357
2017-09-06T03:18:15.738Z,100365
2017-09-06T03:20:45.969Z,100359
2017-09-06T03:23:15.918Z,100348
2017-09-06T03:25:46.193Z,100348
2017-09-06T03:28:16.050Z,100350
2017-09-06T03:30:45.973Z,100346
2017-09-06T03:33:15.859Z,100336
2017-09-06T03:35:45.817Z,100343
2017-09-06T03:38:15.701Z,100340
2017-09-06T03:40:45.571Z,100323
2017-09-06T03:43:15.445Z,100332
2017-09-06T03:45:45.322Z,100322
2017-09-06T03:48:15.209Z,100320
2017-09-06T03:50:45.095Z,100316
2017-09-06T03:53:14.954Z,100317
2017-09-06T03:55:44.859Z,100312
2017-09-06T03:58:14.747Z,100301
2017-09-06T04:00:44.607Z,100300
2017-09-06T04:03:14.863Z,100286
2017-09-06T04:05:44.763Z,100285
2017-09-06T04:08:16.007Z,100279
2017-09-06T04:10:45.889Z,100279
2017-09-06T04:13:15.806Z,100276
2017-09-06T04:15:45.677Z,100277
2017-09-06T04:18:15.562Z,100277
2017-09-06T04:20:45.427Z,100277
2017-09-06T04:23:15.293Z,100282
2017-09-06T04:25:45.182Z,100282
2017-09-06T04:28:15.062Z,100278
2017-09-06T04:30:45.399Z,100284
2017-09-06T04:33:15.270Z,100282
2017-09-06T04:35:45.498Z,100274
2017-09-06T04:38:15.441Z,100274
2017-09-06T04:40:45.792Z,100275
2017-09-06T04:43:15.750Z,100275
2017-09-06T04:45:45.660Z,100268
2017-09-06T04:48:15.544Z,100272
2017-09-06T04:50:45.787Z,100274
2017-09-06T04:53:15.698Z,100265
2017-09-06T04:55:45.891Z,100264
2017-09-06T04:58:15.768Z,100262
2017-09-06T05:00:46.109Z,100266
2017-09-06T05:03:15.990Z,100267
2017-09-06T05:05:46.314Z,100257
2017-09-06T05:08:16.259Z,100258
2017-09-06T05:10:46.550Z,100254
2017-09-06T05:13:17.360Z,100245
2017-09-06T05:15:47.671Z,100252
2017-09-06T05:18:17.535Z,100246
2017-09-06T05:20:47.933Z,100240
2017-09-06T05:23:17.869Z,100246
2017-09-06T05:25:48.040Z,100242
2017-09-06T05:28:18.063Z,100252
2017-09-06T05:30:49.016Z,100257
2017-09-06T05:33:18.913Z,100263
2017-09-06T05:35:49.097Z,100253
2017-09-06T05:38:18.969Z,100265
2017-09-06T05:40:48.880Z,100267
2017-09-06T05:43:20.600Z,100271
2017-09-06T05:45:50.539Z,100268
2017-09-06T05:48:20.470Z,100264
2017-09-06T05:50:50.354Z,100268
2017-09-06T05:53:20.521Z,100263
2017-09-06T05:55:50.413Z,100268
2017-09-06T05:58:20.623Z,100261
2017-09-06T06:00:50.518Z,100272
2017-09-06T06:03:21.867Z,100267
2017-09-06T06:05:51.792Z,100269
2017-09-06T06:08:22.216Z,100279
2017-09-06T06:10:52.389Z,100270
2017-09-06T06:13:22.585Z,100279
2017-09-06T06:15:52.549Z,100269
2017-09-06T06:18:22.794Z,100272
2017-09-06T06:20:52.676Z,100275
2017-09-06T06:23:22.914Z,100274
2017-09-06T06:25:52.800Z,100268
2017-09-06T06:28:23.072Z,100273
2017-09-06T06:30:52.970Z,100265
2017-09-06T06:33:23.524Z,100266
2017-09-06T06:35:53.588Z,100258
2017-09-06T06:38:23.484Z,100259
2017-09-06T06:40:53.665Z,100260
2017-09-06T06:43:23.685Z,100254
2017-09-06T06:45:53.999Z,100246
2017-09-06T06:48:23.900Z,100247
2017-09-06T06:50:54.098Z,100248
2017-09-06T06:53:23.971Z,100251
2017-09-06T06:55:53.876Z,100252
2017-09-06T06:58:23.745Z,100258
2017-09-06T07:00:54.232Z,100247
2017-09-06T07:03:24.518Z,100240
2017-09-06T07:05:54.432Z,100234
2017-09-06T07:08:24.659Z,100240
2017-09-06T07:10:54.554Z,100239
2017-09-06T07:13:24.818Z,100223
2017-09-06T07:15:54.731Z,100227
2017-09-06T07:18:25.014Z,100230
2017-09-06T07:20:54.912Z,100226
2017-09-06T07:23:24.777Z,100218
2017-09-06T07:25:54.764Z,100219
2017-09-06T07:28:24.731Z,100219
2017-09-06T07:30:54.915Z,100223
2017-09-06T07:33:24.940Z,100200
2017-09-06T07:35:55.147Z,100218
2017-09-06T07:38:25.011Z,100206
2017-09-06T07:40:54.937Z,100202
2017-09-06T07:43:24.869Z,100197
2017-09-06T07:45:55.661Z,100185
2017-09-06T07:48:25.857Z,100184
2017-09-06T07:50:55.830Z,100191
2017-09-06T07:53:26.045Z,100201
2017-09-06T07:55:55.927Z,100202
2017-09-06T07:58:25.821Z,100198
2017-09-06T08:00:55.715Z,100197
2017-09-06T08:03:25.609Z,100194
2017-09-06T08:05:55.808Z,100195
2017-09-06T08:08:25.688Z,100195
2017-09-06T08:10:55.872Z,100204
2017-09-06T08:13:25.770Z,100193
2017-09-06T08:15:56.158Z,100200
2017-09-06T08:18:26.130Z,100196
2017-09-06T08:20:56.377Z,100194
2017-09-06T08:23:26.317Z,100188
2017-09-06T08:25:56.619Z,100193
2017-09-06T08:28:26.553Z,100188
2017-09-06T08:30:56.781Z,100181
2017-09-06T08:33:26.672Z,100176
2017-09-06T08:35:57.990Z,100176
2017-09-06T08:38:27.896Z,100168
2017-09-06T08:40:58.150Z,100163
2017-09-06T08:43:28.052Z,100167
2017-09-06T08:45:57.965Z,100153
2017-09-06T08:48:27.858Z,100160
2017-09-06T08:50:58.455Z,100164
2017-09-06T08:53:28.358Z,100163
2017-09-06T08:55:58.309Z,100151
2017-09-06T08:58:28.263Z,100158
2017-09-06T09:00:58.191Z,100161
2017-09-06T09:03:28.186Z,100157
2017-09-06T09:05:58.117Z,100147
2017-09-06T09:08:28.425Z,100155
2017-09-06T09:10:58.346Z,100143
2017-09-06T09:13:28.539Z,100150
2017-09-06T09:15:58.441Z,100135
2017-09-06T09:18:28.779Z,100138
2017-09-06T09:20:58.680Z,100135
2017-09-06T09:23:29.012Z,100139
2017-09-06T09:25:58.927Z,100140
2017-09-06T09:28:29.107Z,100131
2017-09-06T09:30:59.030Z,100124
2017-09-06T09:33:28.954Z,100121
2017-09-06T09:35:58.917Z,100109
2017-09-06T09:38:28.849Z,100109
2017-09-06T09:40:59.374Z,100114
2017-09-06T09:43:29.393Z,100117
2017-09-06T09:45:59.693Z,100105
2017-09-06T09:48:29.648Z,100108
2017-09-06T09:50:59.906Z,100099
2017-09-06T09:53:29.785Z,100103
2017-09-06T09:56:00.041Z,100107
2017-09-06T09:58:30.025Z,100100
2017-09-06T10:01:00.227Z,99858
2017-09-06T10:03:30.146Z,100089
2017-09-06T10:06:00.389Z,100088
2017-09-06T10:08:30.300Z,100090
2017-09-06T10:11:00.667Z,100096
2017-09-06T10:13:30.591Z,100086
2017-09-06T10:16:00.908Z,100092
2017-09-06T10:18:31.010Z,100088
2017-09-06T10:21:01.240Z,100081
2017-09-06T10:23:31.244Z,100086
2017-09-06T10:26:01.429Z,100077
2017-09-06T10:28:31.446Z,100073
2017-09-06T10:31:01.752Z,100066
2017-09-06T10:33:31.681Z,100066
2017-09-06T10:36:05.926Z,99860
2017-09-06T10:38:36.588Z,100061
2017-09-06T10:41:06.812Z,100064
2017-09-06T10:43:36.799Z,100058
2017-09-06T10:46:07.323Z,100054
2017-09-06T10:48:37.315Z,100055
2017-09-06T10:51:07.510Z,100049
2017-09-06T10:53:37.481Z,100058
2017-09-06T10:56:08.023Z,100060
2017-09-06T10:58:38.038Z,100057
2017-09-06T11:01:08.489Z,100050
2017-09-06T11:03:38.626Z,100042
2017-09-06T11:06:08.887Z,100040
2017-09-06T11:08:38.804Z,100044
2017-09-06T11:11:09.020Z,100040
2017-09-06T11:13:39.842Z,100034
2017-09-06T11:16:10.300Z,100030
2017-09-06T11:18:40.303Z,100029
2017-09-06T11:21:10.761Z,100023
2017-09-06T11:23:40.717Z,100023
2017-09-06T11:26:11.599Z,100015
2017-09-06T11:28:46.456Z,100013
2017-09-06T11:31:18.597Z,100008
2017-09-06T11:33:48.606Z,100013
2017-09-06T11:36:18.992Z,100014
2017-09-06T11:38:48.905Z,100014
2017-09-06T11:41:19.248Z,100017
2017-09-06T11:43:49.651Z,100008
2017-09-06T11:46:20.551Z,100012
2017-09-06T11:48:50.443Z,100010
2017-09-06T11:51:20.678Z,100005
2017-09-06T11:53:50.713Z,100008
2017-09-06T11:56:21.040Z,99996
2017-09-06T11:58:51.079Z,100003
2017-09-06T12:01:21.453Z,100006
2017-09-06T12:03:51.383Z,99997
2017-09-06T12:06:21.787Z,99991
2017-09-06T12:08:52.887Z,99983
2017-09-06T12:11:23.257Z,99987
2017-09-06T12:13:53.247Z,99982
2017-09-06T12:16:23.615Z,99974
2017-09-06T12:18:53.590Z,99974
2017-09-06T12:21:24.329Z,99972
2017-09-06T12:23:54.300Z,99975
2017-09-06T12:26:24.695Z,99978
2017-09-06T12:28:54.649Z,99972
2017-09-06T12:31:24.843Z,99968
2017-09-06T12:33:54.817Z,99972
2017-09-06T12:36:25.034Z,99968
2017-09-06T12:38:54.913Z,99974
2017-09-06T12:41:24.906Z,99966
2017-09-06T12:43:54.834Z,99967
2017-09-06T12:46:24.757Z,99958
2017-09-06T12:48:55.011Z,99960
2017-09-06T12:51:24.937Z,99964
2017-09-06T12:53:55.151Z,99964
2017-09-06T12:56:25.084Z,99959
2017-09-06T12:58:55.054Z,99956
2017-09-06T13:01:24.958Z,99954
2017-09-06T13:03:54.907Z,99971
2017-09-06T13:06:25.107Z,99961
2017-09-06T13:08:55.003Z,99961
2017-09-06T13:11:24.909Z,99968
2017-09-06T13:13:54.824Z,99973
2017-09-06T13:16:24.930Z,99930
2017-09-06T13:18:54.982Z,99964
2017-09-06T13:21:24.967Z,99974
2017-09-06T13:23:55.319Z,99969
2017-09-06T13:26:25.229Z,99974
2017-09-06T13:28:55.763Z,99968
2017-09-06T13:31:25.724Z,99985
2017-09-06T13:33:55.993Z,99976
2017-09-06T13:36:26.015Z,99989
2017-09-06T13:38:56.349Z,100001
2017-09-06T13:41:26.300Z,100020
2017-09-06T13:43:56.515Z,100027
2017-09-06T13:46:26.423Z,100044
2017-09-06T13:48:56.620Z,100051
2017-09-06T13:51:26.541Z,100042
2017-09-06T13:53:56.721Z,100066
2017-09-06T13:56:26.685Z,100064
2017-09-06T13:58:57.068Z,100080
2017-09-06T14:01:27.018Z,100066
2017-09-06T14:03:56.957Z,100093
2017-09-06T14:06:26.931Z,100115
2017-09-06T14:08:56.851Z,100081
2017-09-06T14:11:27.137Z,100107
2017-09-06T14:13:57.032Z,100047
2017-09-06T14:16:26.970Z,100110
2017-09-06T14:18:56.879Z,100119
2017-09-06T14:21:26.808Z,100123
2017-09-06T14:23:57.116Z,100148
2017-09-06T14:26:27.040Z,100121
2017-09-06T14:28:57.358Z,100142
2017-09-06T14:31:27.356Z,100159
2017-09-06T14:33:57.879Z,100155
2017-09-06T14:36:27.828Z,100152
2017-09-06T14:38:58.046Z,100161
2017-09-06T14:41:27.945Z,100170
2017-09-06T14:43:57.923Z,100163
2017-09-06T14:46:27.825Z,100184
2017-09-06T14:48:57.878Z,100142
2017-09-06T14:51:28.341Z,100181
2017-09-06T14:53:58.239Z,100187
2017-09-06T14:56:28.447Z,100207
2017-09-06T14:58:58.411Z,100201
2017-09-06T15:01:28.676Z,100204
2017-09-06T15:03:58.582Z,100205
2017-09-06T15:06:29.051Z,100225
2017-09-06T15:08:58.965Z,100225
2017-09-06T15:11:29.361Z,100237
2017-09-06T15:13:59.575Z,100216
2017-09-06T15:16:30.020Z,100227
2017-09-06T15:18:59.950Z,100237
2017-09-06T15:21:31.722Z,100259
2017-09-06T15:24:01.688Z,100219
2017-09-06T15:26:31.628Z,100239
2017-09-06T15:29:01.532Z,100249
2017-09-06T15:31:31.442Z,100251
2017-09-06T15:34:01.665Z,100266
2017-09-06T15:36:31.610Z,100260
2017-09-06T15:39:01.978Z,100285
2017-09-06T15:41:31.892Z,100245
2017-09-06T15:44:02.148Z,100249
2017-09-06T15:46:32.145Z,100268
2017-09-06T15:49:02.322Z,100274
2017-09-06T15:51:32.244Z,100277
2017-09-06T15:54:02.551Z,100281
2017-09-06T15:56:32.435Z,100280
2017-09-06T15:59:02.681Z,100284
2017-09-06T16:01:32.586Z,100284
2017-09-06T16:04:02.828Z,100281
2017-09-06T16:06:32.686Z,100279
2017-09-06T16:09:02.879Z,100001
2017-09-06T16:11:33.535Z,100295
2017-09-06T16:14:03.975Z,100300
2017-09-06T16:16:33.950Z,100296
2017-09-06T16:19:04.208Z,100298
2017-09-06T16:21:34.249Z,100301
2017-09-06T16:24:04.702Z,100307
2017-09-06T16:26:35.687Z,100300
2017-09-06T16:29:05.904Z,100298
2017-09-06T16:31:35.864Z,100302
2017-09-06T16:34:06.042Z,100298
2017-09-06T16:36:36.025Z,100298
2017-09-06T16:39:05.920Z,100304
2017-09-06T16:41:35.791Z,100308
2017-09-06T16:44:05.661Z,100307
2017-09-06T16:46:35.865Z,100313
2017-09-06T16:49:05.815Z,100315
2017-09-06T16:51:36.086Z,100315
2017-09-06T16:54:05.960Z,100320
2017-09-06T16:56:35.920Z,100310
2017-09-06T16:59:05.851Z,100316
2017-09-06T17:01:36.645Z,100313
2017-09-06T17:04:07.770Z,100306
2017-09-06T17:06:37.708Z,100301
2017-09-06T17:09:08.059Z,100300
2017-09-06T17:11:37.972Z,100307
2017-09-06T17:14:08.287Z,100255
2017-09-06T17:16:38.235Z,100309
2017-09-06T17:19:08.620Z,100307
2017-09-06T17:21:38.534Z,100311
2017-09-06T17:24:08.752Z,100316
2017-09-06T17:26:38.720Z,100315
2017-09-06T17:29:08.905Z,100322
2017-09-06T17:31:38.800Z,100321
2017-09-06T17:34:09.183Z,100319
2017-09-06T17:36:40.097Z,100323
2017-09-06T17:39:11.077Z,100317
2017-09-06T17:41:40.979Z,100322
2017-09-06T17:44:12.864Z,100318
2017-09-06T17:46:42.836Z,100317
2017-09-06T17:49:13.105Z,100317
2017-09-06T17:51:43.109Z,100323
2017-09-06T17:54:13.424Z,100321
2017-09-06T17:56:43.390Z,100324
2017-09-06T17:59:13.722Z,100324
2017-09-06T18:01:43.733Z,100333
2017-09-06T18:04:14.882Z,100330
2017-09-06T18:06:46.952Z,100335
2017-09-06T18:09:17.311Z,100336
2017-09-06T18:11:50.121Z,100339
2017-09-06T18:14:20.383Z,100340
2017-09-06T18:16:50.569Z,100352
2017-09-06T18:19:21.007Z,100346
2017-09-06T18:21:50.954Z,100345
2017-09-06T18:24:21.341Z,100346
2017-09-06T18:26:51.329Z,100351
2017-09-06T18:29:21.698Z,100353
2017-09-06T18:31:51.617Z,100359
2017-09-06T18:34:21.953Z,100360
2017-09-06T18:36:51.872Z,100362
2017-09-06T18:39:22.176Z,100366
2017-09-06T18:41:52.123Z,100366
2017-09-06T18:44:22.473Z,100367
2017-09-06T18:46:52.493Z,100366
2017-09-06T18:49:22.976Z,100364
2017-09-06T18:51:52.994Z,100374
2017-09-06T18:54:23.533Z,100370
2017-09-06T18:56:53.541Z,100373
2017-09-06T18:59:23.849Z,100379
2017-09-06T19:01:54.836Z,100368
2017-09-06T19:04:25.249Z,100383
2017-09-06T19:06:55.326Z,100361
2017-09-06T19:09:25.870Z,100377
2017-09-06T19:11:55.926Z,100373
2017-09-06T19:14:26.311Z,100372
2017-09-06T19:16:56.368Z,100368
2017-09-06T19:19:26.922Z,100368
2017-09-06T19:21:56.994Z,100384
2017-09-06T19:24:27.393Z,100377
2017-09-06T19:26:57.388Z,100372
2017-09-06T19:29:27.842Z,100378
2017-09-06T19:31:57.844Z,100377
2017-09-06T19:34:28.183Z,100384
2017-09-06T19:36:58.204Z,100383
2017-09-06T19:39:28.512Z,100382
2017-09-06T19:41:58.662Z,100388
2017-09-06T19:44:29.204Z,100392
2017-09-06T19:46:59.345Z,100361
2017-09-06T19:49:29.801Z,100382
2017-09-06T19:51:59.826Z,100384
2017-09-06T19:54:30.352Z,100371
2017-09-06T19:57:00.399Z,100375
2017-09-06T19:59:30.747Z,100371
2017-09-06T20:02:00.832Z,100386
2017-09-06T20:04:32.135Z,100379
2017-09-06T20:07:02.184Z,100378
2017-09-06T20:09:32.552Z,100372
2017-09-06T20:12:02.500Z,100374
2017-09-06T20:14:32.792Z,100374
2017-09-06T20:17:02.713Z,100179
2017-09-06T20:19:33.143Z,100380
2017-09-06T20:22:03.154Z,100378
2017-09-06T20:24:34.217Z,100371
2017-09-06T20:27:04.088Z,100378
2017-09-06T20:29:34.417Z,100376
2017-09-06T20:32:04.304Z,100376
2017-09-06T20:34:34.532Z,100374
2017-09-06T20:37:04.449Z,100373
2017-09-06T20:39:34.703Z,100376
2017-09-06T20:42:04.608Z,100378
2017-09-06T20:44:34.920Z,100373
2017-09-06T20:47:04.865Z,100375
2017-09-06T20:49:35.133Z,100383
2017-09-06T20:52:05.057Z,100377
2017-09-06T20:54:34.977Z,100382
2017-09-06T20:57:04.903Z,100379
2017-09-06T20:59:34.826Z,100378
2017-09-06T21:02:05.219Z,100379
2017-09-06T21:04:35.121Z,100386
2017-09-06T21:07:05.489Z,100392
2017-09-06T21:09:35.379Z,100383
2017-09-06T21:12:05.678Z,100385
2017-09-06T21:14:35.668Z,100382
2017-09-06T21:17:06.096Z,100380
2017-09-06T21:19:35.974Z,100380
2017-09-06T21:22:06.250Z,100380
2017-09-06T21:24:36.124Z,100388
2017-09-06T21:27:06.524Z,100387
2017-09-06T21:29:36.497Z,100388
2017-09-06T21:32:06.914Z,100383
2017-09-06T21:34:36.833Z,100384
2017-09-06T21:37:07.201Z,100396
2017-09-06T21:39:37.113Z,100396
2017-09-06T21:42:07.446Z,100403
2017-09-06T21:44:37.585Z,100407
2017-09-06T21:47:07.958Z,100397
2017-09-06T21:49:38.173Z,100391
2017-09-06T21:52:08.623Z,100395
2017-09-06T21:54:39.578Z,100411
2017-09-06T21:57:09.991Z,100411
2017-09-06T21:59:40.055Z,100403
2017-09-06T22:02:10.315Z,100407
2017-09-06T22:04:40.296Z,100399
2017-09-06T22:07:10.611Z,100401
2017-09-06T22:09:40.581Z,100405
2017-09-06T22:12:10.904Z,100401
2017-09-06T22:14:40.863Z,100397
2017-09-06T22:17:11.348Z,100393
2017-09-06T22:19:41.254Z,100401
2017-09-06T22:22:11.625Z,100402
2017-09-06T22:24:41.574Z,100408
2017-09-06T22:27:15.836Z,100386
2017-09-06T22:29:45.767Z,100397
2017-09-06T22:32:16.207Z,100387
2017-09-06T22:34:46.192Z,100381
2017-09-06T22:37:16.608Z,100377
2017-09-06T22:39:46.582Z,100379
2017-09-06T22:42:16.608Z,100386
2017-09-06T22:44:46.610Z,100383
2017-09-06T22:47:16.883Z,100381
2017-09-06T22:49:46.803Z,100380
2017-09-06T22:52:17.076Z,100387
2017-09-06T22:54:47.173Z,100389
2017-09-06T22:57:18.374Z,100381
2017-09-06T22:59:48.382Z,100386
2017-09-06T23:02:18.671Z,100371
2017-09-06T23:04:48.577Z,100383
2017-09-06T23:07:18.869Z,100381
2017-09-06T23:09:48.749Z,100380
2017-09-06T23:12:19.006Z,100392
2017-09-06T23:14:48.913Z,100390
2017-09-06T23:17:19.204Z,100103
2017-09-06T23:19:49.135Z,100389
2017-09-06T23:22:19.835Z,100406
2017-09-06T23:24:49.782Z,100384
2017-09-06T23:27:20.594Z,100381
2017-09-06T23:29:50.478Z,100391
2017-09-06T23:32:20.947Z,100395
2017-09-06T23:34:50.947Z,100386
2017-09-06T23:37:21.271Z,100386
2017-09-06T23:39:51.150Z,100378
2017-09-06T23:42:21.408Z,100385
2017-09-06T23:44:51.274Z,100382
2017-09-06T23:47:21.701Z,100372
2017-09-06T23:49:51.615Z,100378
2017-09-06T23:52:21.877Z,100391
2017-09-06T23:54:51.779Z,100389
2017-09-06T23:57:22.126Z,100382
2017-09-06T23:59:52.063Z,100390
